createdAt,value
2016-10-11T00:00:27.852Z,0
2016-10-11T00:01:28.366Z,0
2016-10-11T00:02:29.001Z,0
2016-10-11T00:03:29.381Z,0
2016-10-11T00:04:29.900Z,0
2016-10-11T00:05:30.390Z,0
2016-10-11T00:06:30.904Z,0
2016-10-11T00:07:31.441Z,0
2016-10-11T00:08:31.931Z,0
2016-10-11T00:09:32.466Z,0
2016-10-11T00:10:32.955Z,0
2016-10-11T00:11:33.494Z,0
2016-10-11T00:12:33.983Z,0
2016-10-11T00:13:34.507Z,0
2016-10-11T00:14:35.012Z,0
2016-10-11T00:15:35.545Z,0
2016-10-11T00:16:36.033Z,0
2016-10-11T00:17:36.543Z,0
2016-10-11T00:18:37.205Z,0
2016-10-11T00:19:37.570Z,0
2016-10-11T00:20:38.083Z,0
2016-10-11T00:21:38.594Z,0
2016-10-11T00:22:39.110Z,0
2016-10-11T00:23:39.621Z,0
2016-10-11T00:24:40.282Z,0
2016-10-11T00:25:40.654Z,0
2016-10-11T00:26:41.197Z,0
2016-10-11T00:27:41.683Z,0
2016-10-11T00:28:42.344Z,0
2016-10-11T00:29:42.705Z,0
2016-10-11T00:30:43.229Z,0
2016-10-11T00:31:43.741Z,0
2016-10-11T00:32:44.259Z,0
2016-10-11T00:33:44.772Z,0
2016-10-11T00:34:45.433Z,0
2016-10-11T00:35:45.799Z,0
2016-10-11T00:36:46.461Z,0
2016-10-11T00:37:46.861Z,0
2016-10-11T00:38:47.345Z,0
2016-10-11T00:39:47.892Z,0
2016-10-11T00:40:48.518Z,0
2016-10-11T00:41:48.913Z,0
2016-10-11T00:42:49.395Z,0
2016-10-11T00:43:49.933Z,0
2016-10-11T00:44:50.429Z,0
2016-10-11T00:45:50.966Z,0
2016-10-11T00:46:51.598Z,0
2016-10-11T00:47:51.986Z,0
2016-10-11T00:48:52.621Z,0
2016-10-11T00:49:52.986Z,0
2016-10-11T00:50:53.532Z,0
2016-10-11T00:51:54.036Z,0
2016-10-11T00:52:54.677Z,0
2016-10-11T00:53:55.055Z,0
2016-10-11T00:54:55.553Z,0
2016-10-11T00:55:56.063Z,0
2016-10-11T00:56:56.728Z,0
2016-10-11T00:57:57.117Z,0
2016-10-11T00:58:57.635Z,0
2016-10-11T00:59:58.116Z,0
2016-10-11T01:00:58.661Z,0
2016-10-11T01:01:59.144Z,0
2016-10-11T01:02:59.681Z,0
2016-10-11T01:04:00.182Z,0
2016-10-11T01:05:00.826Z,0
2016-10-11T01:06:01.190Z,0
2016-10-11T01:07:01.854Z,0
2016-10-11T01:08:02.253Z,0
2016-10-11T01:09:02.740Z,0
2016-10-11T01:10:03.280Z,0
2016-10-11T01:11:03.917Z,0
2016-10-11T01:12:04.282Z,0
2016-10-11T01:13:04.943Z,0
2016-10-11T01:14:05.339Z,0
2016-10-11T01:15:05.822Z,0
2016-10-11T01:16:06.486Z,0
2016-10-11T01:17:06.851Z,0
2016-10-11T01:18:07.370Z,0
2016-10-11T01:19:07.873Z,0
2016-10-11T01:20:08.537Z,0
2016-10-11T01:21:09.053Z,0
2016-10-11T01:22:09.427Z,0
2016-10-11T01:23:10.079Z,0
2016-10-11T01:24:10.441Z,0
2016-10-11T01:25:10.956Z,0
2016-10-11T01:26:11.466Z,0
2016-10-11T01:27:12.126Z,0
2016-10-11T01:28:12.498Z,0
2016-10-11T01:29:13.009Z,0
2016-10-11T01:30:13.519Z,0
2016-10-11T01:31:14.182Z,0
2016-10-11T01:32:14.547Z,0
2016-10-11T01:33:15.063Z,0
2016-10-11T01:34:15.601Z,0
2016-10-11T01:35:16.121Z,0
2016-10-11T01:36:16.632Z,0
2016-10-11T01:37:17.119Z,0
2016-10-11T01:38:17.632Z,0
2016-10-11T01:39:18.151Z,0
2016-10-11T01:40:18.684Z,0
2016-10-11T01:41:19.172Z,0
2016-10-11T01:42:19.690Z,0
2016-10-11T01:43:20.232Z,0
2016-10-11T01:44:20.715Z,0
2016-10-11T01:45:21.377Z,0
2016-10-11T01:46:21.749Z,0
2016-10-11T01:47:22.260Z,0
2016-10-11T01:48:22.790Z,0
2016-10-11T01:49:23.314Z,0
2016-10-11T01:50:23.822Z,0
2016-10-11T01:51:24.337Z,0
2016-10-11T01:52:24.873Z,0
2016-10-11T01:53:25.387Z,0
2016-10-11T01:54:25.907Z,0
2016-10-11T01:55:26.406Z,0
2016-10-11T01:56:26.893Z,0
2016-10-11T01:57:27.553Z,0
2016-10-11T01:58:27.916Z,0
2016-10-11T01:59:28.458Z,0
2016-10-11T02:00:28.938Z,0
2016-10-11T02:01:29.600Z,0
2016-10-11T02:02:29.966Z,0
2016-10-11T02:03:30.628Z,0
2016-10-11T02:04:31.159Z,0
2016-10-11T02:05:31.511Z,0
2016-10-11T02:06:32.025Z,0
2016-10-11T02:07:32.569Z,0
2016-10-11T02:08:33.079Z,0
2016-10-11T02:09:33.602Z,0
2016-10-11T02:10:34.116Z,0
2016-10-11T02:11:34.755Z,0
2016-10-11T02:12:35.111Z,0
2016-10-11T02:13:35.653Z,0
2016-10-11T02:14:36.166Z,0
2016-10-11T02:15:36.649Z,0
2016-10-11T02:16:37.312Z,0
2016-10-11T02:17:37.705Z,0
2016-10-11T02:18:38.183Z,0
2016-10-11T02:19:38.693Z,0
2016-10-11T02:20:39.231Z,0
2016-10-11T02:21:39.866Z,0
2016-10-11T02:22:40.272Z,0
2016-10-11T02:23:40.750Z,0
2016-10-11T02:24:41.264Z,0
2016-10-11T02:25:41.921Z,0
2016-10-11T02:26:42.325Z,0
2016-10-11T02:27:42.813Z,0
2016-10-11T02:28:43.326Z,0
2016-10-11T02:29:43.986Z,0
2016-10-11T02:30:44.354Z,0
2016-10-11T02:31:45.016Z,0
2016-10-11T02:32:45.380Z,0
2016-10-11T02:33:45.897Z,0
2016-10-11T02:34:46.412Z,0
2016-10-11T02:35:47.074Z,0
2016-10-11T02:36:47.592Z,0
2016-10-11T02:37:47.955Z,0
2016-10-11T02:38:48.465Z,0
2016-10-11T02:39:48.984Z,0
2016-10-11T02:40:49.523Z,0
2016-10-11T02:41:50.012Z,0
2016-10-11T02:42:50.550Z,0
2016-10-11T02:43:51.037Z,0
2016-10-11T02:44:51.579Z,0
2016-10-11T02:45:52.214Z,0
2016-10-11T02:46:52.603Z,0
2016-10-11T02:47:53.096Z,0
2016-10-11T02:48:53.606Z,0
2016-10-11T02:49:54.118Z,0
2016-10-11T02:50:54.632Z,0
2016-10-11T02:51:55.146Z,0
2016-10-11T02:52:55.657Z,0
2016-10-11T02:53:56.317Z,0
2016-10-11T02:54:56.713Z,0
2016-10-11T02:55:57.199Z,0
2016-10-11T02:56:57.738Z,0
2016-10-11T02:57:58.221Z,0
2016-10-11T02:58:58.762Z,0
2016-10-11T02:59:59.278Z,0
2016-10-11T03:00:59.762Z,0
2016-10-11T03:02:00.277Z,0
2016-10-11T03:03:00.809Z,0
2016-10-11T03:04:01.298Z,0
2016-10-11T03:05:01.807Z,0
2016-10-11T03:06:02.471Z,0
2016-10-11T03:07:02.871Z,0
2016-10-11T03:08:03.382Z,0
2016-10-11T03:09:03.891Z,0
2016-10-11T03:10:04.393Z,0
2016-10-11T03:11:04.918Z,0
2016-10-11T03:12:05.416Z,0
2016-10-11T03:13:05.958Z,0
2016-10-11T03:14:06.444Z,0
2016-10-11T03:15:07.105Z,0
2016-10-11T03:16:07.472Z,0
2016-10-11T03:17:07.980Z,0
2016-10-11T03:18:08.523Z,0
2016-10-11T03:19:09.012Z,0
2016-10-11T03:20:09.668Z,0
2016-10-11T03:21:10.033Z,0
2016-10-11T03:22:10.696Z,0
2016-10-11T03:23:11.091Z,0
2016-10-11T03:24:11.726Z,0
2016-10-11T03:25:12.093Z,0
2016-10-11T03:26:12.607Z,0
2016-10-11T03:27:13.119Z,0
2016-10-11T03:28:13.657Z,0
2016-10-11T03:29:14.178Z,0
2016-10-11T03:30:14.805Z,0
2016-10-11T03:31:15.169Z,0
2016-10-11T03:32:15.717Z,0
2016-10-11T03:33:16.197Z,0
2016-10-11T03:34:16.857Z,0
2016-10-11T03:35:17.251Z,0
2016-10-11T03:36:17.765Z,0
2016-10-11T03:37:18.402Z,0
2016-10-11T03:38:18.911Z,0
2016-10-11T03:39:19.279Z,0
2016-10-11T03:40:19.791Z,0
2016-10-11T03:41:20.342Z,0
2016-10-11T03:42:20.831Z,0
2016-10-11T03:43:21.363Z,0
2016-10-11T03:44:21.995Z,0
2016-10-11T03:45:22.364Z,0
2016-10-11T03:46:22.879Z,0
2016-10-11T03:47:23.427Z,0
2016-10-11T03:48:23.915Z,0
2016-10-11T03:49:24.437Z,0
2016-10-11T03:50:24.953Z,0
2016-10-11T03:51:25.471Z,0
2016-10-11T03:52:26.131Z,0
2016-10-11T03:53:26.522Z,0
2016-10-11T03:54:27.007Z,0
2016-10-11T03:55:27.542Z,0
2016-10-11T03:56:28.041Z,0
2016-10-11T03:57:28.569Z,0
2016-10-11T03:58:29.200Z,0
2016-10-11T03:59:29.587Z,0
2016-10-11T04:00:30.221Z,0
2016-10-11T04:01:30.596Z,0
2016-10-11T04:02:31.093Z,0
2016-10-11T04:03:31.636Z,0
2016-10-11T04:04:32.272Z,0
2016-10-11T04:05:32.633Z,0
2016-10-11T04:06:33.299Z,0
2016-10-11T04:07:33.667Z,0
2016-10-11T04:08:34.181Z,0
2016-10-11T04:09:34.723Z,0
2016-10-11T04:10:35.356Z,0
2016-10-11T04:11:35.874Z,0
2016-10-11T04:12:36.238Z,0
2016-10-11T04:13:36.751Z,0
2016-10-11T04:14:37.412Z,0
2016-10-11T04:15:37.810Z,0
2016-10-11T04:16:38.320Z,0
2016-10-11T04:17:38.827Z,0
2016-10-11T04:18:39.475Z,0
2016-10-11T04:19:39.973Z,0
2016-10-11T04:20:40.332Z,0
2016-10-11T04:21:40.887Z,0
2016-10-11T04:22:41.363Z,0
2016-10-11T04:23:41.900Z,0
2016-10-11T04:24:42.535Z,0
2016-10-11T04:25:42.904Z,0
2016-10-11T04:26:43.423Z,0
2016-10-11T04:27:43.962Z,0
2016-10-11T04:28:44.608Z,0
2016-10-11T04:29:45.006Z,0
2016-10-11T04:30:45.520Z,0
2016-10-11T04:31:46.014Z,0
2016-10-11T04:32:46.550Z,0
2016-10-11T04:33:47.068Z,0
2016-10-11T04:34:47.706Z,0
2016-10-11T04:35:48.091Z,0
2016-10-11T04:36:48.611Z,0
2016-10-11T04:37:49.098Z,0
2016-10-11T04:38:49.614Z,0
2016-10-11T04:39:50.122Z,0
2016-10-11T04:40:50.664Z,0
2016-10-11T04:41:51.301Z,0
2016-10-11T04:42:51.685Z,0
2016-10-11T04:43:52.181Z,0
2016-10-11T04:44:52.696Z,0
2016-10-11T04:45:53.212Z,0
2016-10-11T04:46:53.729Z,0
2016-10-11T04:47:54.264Z,0
2016-10-11T04:48:54.751Z,0
2016-10-11T04:49:55.262Z,0
2016-10-11T04:50:55.776Z,0
2016-10-11T04:51:56.319Z,0
2016-10-11T04:52:56.805Z,0
2016-10-11T04:53:57.315Z,0
2016-10-11T04:54:57.829Z,0
2016-10-11T04:55:58.339Z,0
2016-10-11T04:56:58.860Z,0
2016-10-11T04:57:59.362Z,0
2016-10-11T04:59:00.028Z,0
2016-10-11T05:00:00.389Z,0
2016-10-11T05:01:00.902Z,0
2016-10-11T05:02:01.424Z,0
2016-10-11T05:03:01.937Z,0
2016-10-11T05:04:02.474Z,0
2016-10-11T05:05:02.955Z,0
2016-10-11T05:06:03.471Z,0
2016-10-11T05:07:04.011Z,0
2016-10-11T05:08:04.527Z,0
2016-10-11T05:09:05.015Z,0
2016-10-11T05:10:05.536Z,0
2016-10-11T05:11:06.192Z,0
2016-10-11T05:12:06.555Z,0
2016-10-11T05:13:07.215Z,0
2016-10-11T05:14:07.615Z,0
2016-10-11T05:15:08.094Z,0
2016-10-11T05:16:08.651Z,0
2016-10-11T05:17:09.126Z,0
2016-10-11T05:18:09.660Z,0
2016-10-11T05:19:10.153Z,0
2016-10-11T05:20:10.663Z,0
2016-10-11T05:21:11.192Z,0
2016-10-11T05:22:11.721Z,0
2016-10-11T05:23:12.211Z,0
2016-10-11T05:24:12.724Z,0
2016-10-11T05:25:13.237Z,0
2016-10-11T05:26:13.779Z,0
2016-10-11T05:27:14.296Z,0
2016-10-11T05:28:14.798Z,0
2016-10-11T05:29:15.284Z,0
2016-10-11T05:30:15.820Z,0
2016-10-11T05:31:16.460Z,0
2016-10-11T05:32:16.856Z,0
2016-10-11T05:33:17.366Z,0
2016-10-11T05:34:17.880Z,0
2016-10-11T05:35:18.391Z,0
2016-10-11T05:36:18.900Z,0
2016-10-11T05:37:19.534Z,0
2016-10-11T05:38:19.900Z,0
2016-10-11T05:39:20.446Z,0
2016-10-11T05:40:20.948Z,0
2016-10-11T05:41:21.593Z,0
2016-10-11T05:42:21.954Z,0
2016-10-11T05:43:22.505Z,0
2016-10-11T05:44:23.141Z,0
2016-10-11T05:45:23.652Z,0
2016-10-11T05:46:24.044Z,0
2016-10-11T05:47:24.685Z,0
2016-10-11T05:48:25.050Z,0
2016-10-11T05:49:25.596Z,0
2016-10-11T05:50:26.115Z,0
2016-10-11T05:51:26.602Z,0
2016-10-11T05:52:27.141Z,0
2016-10-11T05:53:27.774Z,0
2016-10-11T05:54:28.167Z,0
2016-10-11T05:55:28.649Z,0
2016-10-11T05:56:29.165Z,0
2016-10-11T05:57:29.674Z,0
2016-10-11T05:58:30.218Z,0
2016-10-11T05:59:30.734Z,0
2016-10-11T06:00:31.215Z,0
2016-10-11T06:01:31.881Z,0
2016-10-11T06:02:32.276Z,0
2016-10-11T06:03:32.908Z,0
2016-10-11T06:04:33.304Z,0
2016-10-11T06:05:33.933Z,0
2016-10-11T06:06:34.350Z,0
2016-10-11T06:07:34.815Z,0
2016-10-11T06:08:35.352Z,0
2016-10-11T06:09:35.842Z,0
2016-10-11T06:10:36.384Z,0
2016-10-11T06:11:36.895Z,0
2016-10-11T06:12:37.386Z,0
2016-10-11T06:13:37.900Z,0
2016-10-11T06:14:38.441Z,0
2016-10-11T06:15:39.069Z,0
2016-10-11T06:16:39.432Z,0
2016-10-11T06:17:40.093Z,0
2016-10-11T06:18:40.481Z,0
2016-10-11T06:19:40.970Z,0
2016-10-11T06:20:41.483Z,0
2016-10-11T06:21:42.147Z,0
2016-10-11T06:22:42.511Z,0
2016-10-11T06:23:43.050Z,0
2016-10-11T06:24:43.538Z,0
2016-10-11T06:25:44.077Z,0
2016-10-11T06:26:44.595Z,0
2016-10-11T06:27:45.231Z,0
2016-10-11T06:28:45.632Z,0
2016-10-11T06:29:46.117Z,0
2016-10-11T06:30:46.661Z,0
2016-10-11T06:31:47.298Z,0
2016-10-11T06:32:47.664Z,0
2016-10-11T06:33:48.178Z,0
2016-10-11T06:34:48.719Z,0
2016-10-11T06:35:49.361Z,0
2016-10-11T06:36:49.725Z,0
2016-10-11T06:37:50.388Z,0
2016-10-11T06:38:50.757Z,0
2016-10-11T06:39:51.415Z,0
2016-10-11T06:40:51.780Z,0
2016-10-11T06:41:52.297Z,0
2016-10-11T06:42:52.829Z,0
2016-10-11T06:43:53.469Z,0
2016-10-11T06:44:53.863Z,0
2016-10-11T06:45:54.350Z,0
2016-10-11T06:46:54.865Z,0
2016-10-11T06:47:55.381Z,14
2016-10-11T06:48:55.896Z,16
2016-10-11T06:49:56.435Z,17
2016-10-11T06:50:56.919Z,19
2016-10-11T06:51:57.456Z,22
2016-10-11T06:52:57.970Z,23
2016-10-11T06:53:58.458Z,25
2016-10-11T06:54:58.997Z,26
2016-10-11T06:55:59.626Z,27
2016-10-11T06:56:59.994Z,24
2016-10-11T06:58:00.658Z,22
2016-10-11T06:59:01.021Z,19
2016-10-11T07:00:01.682Z,17
2016-10-11T07:01:02.049Z,17
2016-10-11T07:02:02.562Z,17
2016-10-11T07:03:03.074Z,16
2016-10-11T07:04:03.733Z,17
2016-10-11T07:05:04.104Z,14
2016-10-11T07:06:04.613Z,14
2016-10-11T07:07:05.152Z,12
2016-10-11T07:08:05.661Z,13
2016-10-11T07:09:06.162Z,12
2016-10-11T07:10:06.695Z,13
2016-10-11T07:11:07.182Z,14
2016-10-11T07:12:07.845Z,14
2016-10-11T07:13:08.242Z,17
2016-10-11T07:14:08.873Z,20
2016-10-11T07:15:09.239Z,22
2016-10-11T07:16:09.755Z,25
2016-10-11T07:17:10.270Z,27
2016-10-11T07:18:10.787Z,28
2016-10-11T07:19:11.341Z,29
2016-10-11T07:20:11.814Z,32
2016-10-11T07:21:12.325Z,34
2016-10-11T07:22:12.986Z,34
2016-10-11T07:23:13.355Z,31
2016-10-11T07:24:13.867Z,32
2016-10-11T07:25:14.376Z,34
2016-10-11T07:26:14.921Z,38
2016-10-11T07:27:15.404Z,42
2016-10-11T07:28:16.062Z,44
2016-10-11T07:29:16.427Z,46
2016-10-11T07:30:16.945Z,48
2016-10-11T07:31:17.453Z,48
2016-10-11T07:32:17.967Z,49
2016-10-11T07:33:18.477Z,47
2016-10-11T07:34:19.030Z,44
2016-10-11T07:35:19.502Z,44
2016-10-11T07:36:20.003Z,47
2016-10-11T07:37:20.659Z,54
2016-10-11T07:38:21.014Z,63
2016-10-11T07:39:21.502Z,76
2016-10-11T07:40:22.151Z,84
2016-10-11T07:41:22.520Z,90
2016-10-11T07:42:23.172Z,93
2016-10-11T07:43:23.671Z,95
2016-10-11T07:44:24.025Z,95
2016-10-11T07:45:24.658Z,97
2016-10-11T07:47:25.579Z,102
2016-10-11T07:48:26.159Z,102
2016-10-11T07:49:26.522Z,100
2016-10-11T07:50:27.021Z,100
2016-10-11T07:51:27.668Z,100
2016-10-11T07:52:28.035Z,101
2016-10-11T07:53:28.538Z,104
2016-10-11T07:54:29.051Z,107
2016-10-11T07:55:29.533Z,110
2016-10-11T07:56:30.031Z,112
2016-10-11T07:57:30.527Z,114
2016-10-11T07:58:31.027Z,115
2016-10-11T07:59:31.671Z,113
2016-10-11T08:00:32.170Z,114
2016-10-11T08:01:32.520Z,118
2016-10-11T08:02:33.049Z,122
2016-10-11T08:03:33.517Z,127
2016-10-11T08:04:34.168Z,130
2016-10-11T08:05:34.517Z,135
2016-10-11T08:06:35.033Z,135
2016-10-11T08:07:35.670Z,138
2016-10-11T08:08:36.169Z,153
2016-10-11T08:09:36.529Z,158
2016-10-11T08:10:37.017Z,176
2016-10-11T08:11:37.670Z,188
2016-10-11T08:12:38.172Z,190
2016-10-11T08:13:38.570Z,186
2016-10-11T08:14:39.168Z,187
2016-10-11T08:15:39.518Z,190
2016-10-11T08:16:40.176Z,183
2016-10-11T08:17:40.550Z,184
2016-10-11T08:18:41.027Z,201
2016-10-11T08:19:41.526Z,270
2016-10-11T08:20:42.068Z,340
2016-10-11T08:21:42.526Z,375
2016-10-11T08:22:43.174Z,382
2016-10-11T08:23:43.681Z,362
2016-10-11T08:24:44.167Z,290
2016-10-11T08:25:44.676Z,292
2016-10-11T08:26:45.031Z,322
2016-10-11T08:27:45.546Z,331
2016-10-11T08:28:46.180Z,390
2016-10-11T08:29:46.527Z,432
2016-10-11T08:30:47.179Z,411
2016-10-11T08:31:47.562Z,371
2016-10-11T08:32:48.048Z,338
2016-10-11T08:33:48.685Z,343
2016-10-11T08:34:49.043Z,252
2016-10-11T08:35:49.559Z,212
2016-10-11T08:36:50.059Z,192
2016-10-11T08:37:50.544Z,194
2016-10-11T08:38:51.189Z,208
2016-10-11T08:39:51.552Z,223
2016-10-11T08:40:52.189Z,199
2016-10-11T08:41:52.556Z,179
2016-10-11T08:42:53.078Z,174
2016-10-11T08:43:53.690Z,184
2016-10-11T08:44:54.081Z,213
2016-10-11T08:45:54.697Z,288
2016-10-11T08:46:55.204Z,347
2016-10-11T08:47:55.563Z,330
2016-10-11T08:48:56.052Z,285
2016-10-11T08:49:56.694Z,266
2016-10-11T08:50:57.217Z,239
2016-10-11T08:51:57.553Z,243
2016-10-11T08:52:58.192Z,233
2016-10-11T08:53:58.545Z,228
2016-10-11T08:54:59.076Z,231
2016-10-11T08:55:59.560Z,237
2016-10-11T08:57:00.059Z,229
2016-10-11T08:58:00.552Z,215
2016-10-11T08:59:01.199Z,196
2016-10-11T09:00:01.551Z,184
2016-10-11T09:01:02.085Z,180
2016-10-11T09:02:02.710Z,189
2016-10-11T09:03:03.081Z,201
2016-10-11T09:04:03.554Z,216
2016-10-11T09:05:04.068Z,231
2016-10-11T09:06:04.701Z,243
2016-10-11T09:07:05.054Z,248
2016-10-11T09:08:05.703Z,251
2016-10-11T09:09:06.204Z,257
2016-10-11T09:10:06.575Z,269
2016-10-11T09:11:07.069Z,270
2016-10-11T09:12:07.571Z,265
2016-10-11T09:13:08.063Z,264
2016-10-11T09:14:08.612Z,264
2016-10-11T09:15:09.249Z,260
2016-10-11T09:16:09.600Z,255
2016-10-11T09:17:10.237Z,245
2016-10-11T09:18:10.570Z,232
2016-10-11T09:19:11.225Z,218
2016-10-11T09:20:11.579Z,201
2016-10-11T09:21:12.066Z,187
2016-10-11T09:22:12.571Z,183
2016-10-11T09:23:13.073Z,184
2016-10-11T09:24:13.564Z,194
2016-10-11T09:25:14.211Z,204
2016-10-11T09:26:14.567Z,215
2016-10-11T09:27:15.070Z,219
2016-10-11T09:28:15.719Z,217
2016-10-11T09:29:16.072Z,215
2016-10-11T09:30:16.586Z,210
2016-10-11T09:31:17.081Z,206
2016-10-11T09:32:17.615Z,204
2016-10-11T09:33:18.072Z,201
2016-10-11T09:34:18.725Z,201
2016-10-11T09:35:19.075Z,204
2016-10-11T09:36:19.572Z,209
2016-10-11T09:37:20.212Z,216
2016-10-11T09:38:20.586Z,227
2016-10-11T09:39:21.086Z,233
2016-10-11T09:40:21.569Z,235
2016-10-11T09:41:22.076Z,231
2016-10-11T09:42:22.736Z,229
2016-10-11T09:43:23.066Z,229
2016-10-11T09:44:23.568Z,229
2016-10-11T09:45:24.069Z,221
2016-10-11T09:46:24.715Z,204
2016-10-11T09:47:25.216Z,188
2016-10-11T09:48:25.600Z,191
2016-10-11T09:49:26.086Z,199
2016-10-11T09:50:26.582Z,201
2016-10-11T09:51:27.239Z,202
2016-10-11T09:52:27.604Z,197
2016-10-11T09:53:28.236Z,194
2016-10-11T09:54:28.588Z,199
2016-10-11T09:55:29.111Z,210
2016-10-11T09:56:29.586Z,224
2016-10-11T09:57:30.132Z,235
2016-10-11T09:58:30.598Z,240
2016-10-11T09:59:31.237Z,247
2016-10-11T10:00:31.604Z,250
2016-10-11T10:01:32.231Z,254
2016-10-11T10:02:32.583Z,257
2016-10-11T10:03:33.083Z,249
2016-10-11T10:04:33.607Z,252
2016-10-11T10:05:34.087Z,253
2016-10-11T10:06:34.587Z,254
2016-10-11T10:07:35.136Z,252
2016-10-11T10:08:35.744Z,250
2016-10-11T10:09:36.236Z,257
2016-10-11T10:10:36.589Z,265
2016-10-11T10:11:37.232Z,262
2016-10-11T10:12:37.737Z,258
2016-10-11T10:13:38.138Z,253
2016-10-11T10:14:38.734Z,250
2016-10-11T10:15:39.232Z,247
2016-10-11T10:16:39.601Z,245
2016-10-11T10:17:40.083Z,241
2016-10-11T10:18:40.736Z,236
2016-10-11T10:19:41.109Z,234
2016-10-11T10:20:41.583Z,235
2016-10-11T10:21:42.082Z,239
2016-10-11T10:22:42.583Z,244
2016-10-11T10:23:43.098Z,248
2016-10-11T10:24:43.601Z,244
2016-10-11T10:25:44.116Z,243
2016-10-11T10:26:44.602Z,244
2016-10-11T10:27:45.087Z,247
2016-10-11T10:28:45.741Z,248
2016-10-11T10:29:46.115Z,249
2016-10-11T10:30:46.745Z,252
2016-10-11T10:31:47.126Z,257
2016-10-11T10:32:47.745Z,263
2016-10-11T10:33:48.133Z,267
2016-10-11T10:34:48.616Z,266
2016-10-11T10:35:49.097Z,268
2016-10-11T10:36:49.755Z,268
2016-10-11T10:37:50.112Z,268
2016-10-11T10:38:50.597Z,270
2016-10-11T10:39:51.260Z,275
2016-10-11T10:40:51.750Z,279
2016-10-11T10:41:52.104Z,285
2016-10-11T10:42:52.749Z,288
2016-10-11T10:43:53.103Z,289
2016-10-11T10:44:53.752Z,291
2016-10-11T10:45:54.280Z,290
2016-10-11T10:46:54.641Z,289
2016-10-11T10:47:55.103Z,287
2016-10-11T10:48:55.621Z,286
2016-10-11T10:49:56.116Z,284
2016-10-11T10:50:56.754Z,280
2016-10-11T10:51:57.148Z,280
2016-10-11T10:52:57.616Z,280
2016-10-11T10:53:58.249Z,280
2016-10-11T10:54:58.608Z,281
2016-10-11T10:55:59.120Z,278
2016-10-11T10:56:59.614Z,272
2016-10-11T10:58:00.253Z,267
2016-10-11T10:59:00.617Z,263
2016-10-11T11:00:01.155Z,261
2016-10-11T11:01:01.759Z,261
2016-10-11T11:02:02.137Z,264
2016-10-11T11:03:02.603Z,265
2016-10-11T11:04:03.114Z,267
2016-10-11T11:05:03.626Z,269
2016-10-11T11:06:04.263Z,273
2016-10-11T11:07:04.609Z,275
2016-10-11T11:08:05.249Z,277
2016-10-11T11:09:05.631Z,278
2016-10-11T11:10:06.135Z,279
2016-10-11T11:11:06.627Z,283
2016-10-11T11:12:07.260Z,285
2016-10-11T11:13:07.617Z,289
2016-10-11T11:14:08.116Z,287
2016-10-11T11:15:08.767Z,291
2016-10-11T11:16:09.142Z,293
2016-10-11T11:17:09.669Z,295
2016-10-11T11:18:10.336Z,298
2016-10-11T11:19:10.771Z,300
2016-10-11T11:20:11.123Z,299
2016-10-11T11:21:11.624Z,298
2016-10-11T11:22:12.265Z,297
2016-10-11T11:23:12.839Z,294
2016-10-11T11:24:13.113Z,291
2016-10-11T11:25:13.624Z,285
2016-10-11T11:26:14.260Z,288
2016-10-11T11:27:14.614Z,287
2016-10-11T11:28:15.171Z,285
2016-10-11T11:29:15.613Z,283
2016-10-11T11:30:16.125Z,282
2016-10-11T11:31:16.907Z,281
2016-10-11T11:32:17.258Z,280
2016-10-11T11:33:17.764Z,278
2016-10-11T11:34:18.132Z,277
2016-10-11T11:35:18.618Z,276
2016-10-11T11:36:19.114Z,278
2016-10-11T11:37:19.655Z,280
2016-10-11T11:38:20.128Z,284
2016-10-11T11:39:20.616Z,282
2016-10-11T11:40:21.135Z,285
2016-10-11T11:41:21.620Z,291
2016-10-11T11:42:22.117Z,292
2016-10-11T11:43:22.761Z,292
2016-10-11T11:44:23.264Z,292
2016-10-11T11:45:23.635Z,293
2016-10-11T11:46:24.263Z,291
2016-10-11T11:47:24.622Z,290
2016-10-11T11:48:25.123Z,286
2016-10-11T11:49:25.777Z,281
2016-10-11T11:50:26.280Z,278
2016-10-11T11:51:26.634Z,277
2016-10-11T11:52:27.152Z,278
2016-10-11T11:53:27.672Z,279
2016-10-11T11:54:28.140Z,280
2016-10-11T11:55:28.789Z,281
2016-10-11T11:56:29.143Z,281
2016-10-11T11:57:29.650Z,280
2016-10-11T11:58:30.139Z,279
2016-10-11T11:59:30.638Z,277
2016-10-11T12:00:31.158Z,275
2016-10-11T12:01:31.628Z,273
2016-10-11T12:02:32.186Z,272
2016-10-11T12:03:32.634Z,271
2016-10-11T12:04:33.145Z,265
2016-10-11T12:05:33.786Z,264
2016-10-11T12:06:34.138Z,263
2016-10-11T12:07:34.647Z,270
2016-10-11T12:08:35.280Z,274
2016-10-11T12:09:35.778Z,279
2016-10-11T12:10:36.136Z,281
2016-10-11T12:11:36.644Z,281
2016-10-11T12:12:37.278Z,279
2016-10-11T12:13:37.642Z,276
2016-10-11T12:14:38.157Z,268
2016-10-11T12:15:38.785Z,264
2016-10-11T12:16:39.284Z,267
2016-10-11T12:17:39.797Z,267
2016-10-11T12:18:40.137Z,271
2016-10-11T12:19:40.782Z,278
2016-10-11T12:20:41.279Z,288
2016-10-11T12:21:41.641Z,293
2016-10-11T12:22:42.148Z,299
2016-10-11T12:23:42.630Z,304
2016-10-11T12:24:43.157Z,303
2016-10-11T12:25:43.789Z,301
2016-10-11T12:26:44.153Z,299
2016-10-11T12:27:44.634Z,299
2016-10-11T12:28:45.154Z,300
2016-10-11T12:29:45.638Z,309
2016-10-11T12:30:46.173Z,315
2016-10-11T12:31:46.797Z,319
2016-10-11T12:32:47.171Z,317
2016-10-11T12:33:47.651Z,314
2016-10-11T12:34:48.148Z,306
2016-10-11T12:35:48.652Z,298
2016-10-11T12:36:49.321Z,293
2016-10-11T12:37:49.660Z,289
2016-10-11T12:38:50.156Z,283
2016-10-11T12:39:50.658Z,271
2016-10-11T12:40:51.196Z,265
2016-10-11T12:41:51.804Z,259
2016-10-11T12:42:52.163Z,258
2016-10-11T12:43:52.651Z,262
2016-10-11T12:44:53.175Z,268
2016-10-11T12:45:53.657Z,276
2016-10-11T12:46:54.296Z,285
2016-10-11T12:47:54.801Z,289
2016-10-11T12:48:55.152Z,291
2016-10-11T12:49:55.654Z,290
2016-10-11T12:50:56.152Z,287
2016-10-11T12:51:56.653Z,284
2016-10-11T12:52:57.154Z,285
2016-10-11T12:53:57.666Z,283
2016-10-11T12:54:58.304Z,285
2016-10-11T12:55:58.828Z,286
2016-10-11T12:56:59.318Z,282
2016-10-11T12:57:59.696Z,285
2016-10-11T12:59:00.309Z,280
2016-10-11T13:00:00.660Z,271
2016-10-11T13:01:01.322Z,262
2016-10-11T13:02:01.725Z,251
2016-10-11T13:03:02.176Z,238
2016-10-11T13:04:02.884Z,227
2016-10-11T13:05:03.176Z,217
2016-10-11T13:06:03.694Z,210
2016-10-11T13:07:04.156Z,207
2016-10-11T13:08:04.810Z,205
2016-10-11T13:09:05.314Z,205
2016-10-11T13:10:05.821Z,203
2016-10-11T13:11:06.323Z,200
2016-10-11T13:12:06.824Z,198
2016-10-11T13:13:07.199Z,196
2016-10-11T13:14:07.711Z,192
2016-10-11T13:15:08.177Z,188
2016-10-11T13:16:08.703Z,182
2016-10-11T13:17:09.322Z,181
2016-10-11T13:18:09.830Z,176
2016-10-11T13:19:10.219Z,175
2016-10-11T13:20:10.715Z,178
2016-10-11T13:21:11.184Z,182
2016-10-11T13:22:11.710Z,186
2016-10-11T13:23:12.176Z,186
2016-10-11T13:24:12.691Z,184
2016-10-11T13:25:13.325Z,182
2016-10-11T13:26:13.832Z,178
2016-10-11T13:27:14.327Z,178
2016-10-11T13:28:14.706Z,178
2016-10-11T13:29:15.324Z,183
2016-10-11T13:30:15.700Z,187
2016-10-11T13:31:16.328Z,188
2016-10-11T13:32:16.683Z,183
2016-10-11T13:33:17.192Z,177
2016-10-11T13:34:17.692Z,170
2016-10-11T13:35:18.331Z,165
2016-10-11T13:36:18.706Z,158
2016-10-11T13:37:19.333Z,149
2016-10-11T13:38:19.681Z,142
2016-10-11T13:39:20.326Z,138
2016-10-11T13:40:20.708Z,134
2016-10-11T13:41:21.189Z,132
2016-10-11T13:42:21.682Z,130
2016-10-11T13:43:22.187Z,129
2016-10-11T13:44:22.710Z,122
2016-10-11T13:45:23.932Z,119
2016-10-11T13:46:23.838Z,117
2016-10-11T13:47:24.194Z,117
2016-10-11T13:48:24.686Z,117
2016-10-11T13:49:25.195Z,119
2016-10-11T13:50:25.848Z,121
2016-10-11T13:51:26.351Z,124
2016-10-11T13:52:26.851Z,125
2016-10-11T13:53:27.230Z,125
2016-10-11T13:54:27.873Z,119
2016-10-11T13:55:28.203Z,110
2016-10-11T13:56:28.711Z,101
2016-10-11T13:57:29.205Z,94
2016-10-11T13:58:29.862Z,90
2016-10-11T13:59:30.209Z,88
2016-10-11T14:00:30.724Z,85
2016-10-11T14:01:31.214Z,83
2016-10-11T14:02:31.704Z,81
2016-10-11T14:03:32.209Z,81
2016-10-11T14:04:32.852Z,80
2016-10-11T14:05:33.238Z,78
2016-10-11T14:06:33.714Z,76
2016-10-11T14:07:34.357Z,75
2016-10-11T14:08:34.714Z,76
2016-10-11T14:09:35.350Z,75
2016-10-11T14:10:35.718Z,76
2016-10-11T14:11:36.208Z,76
2016-10-11T14:12:36.703Z,77
2016-10-11T14:13:37.210Z,77
2016-10-11T14:14:37.734Z,76
2016-10-11T14:15:38.358Z,75
2016-10-11T14:16:38.720Z,74
2016-10-11T14:17:39.222Z,72
2016-10-11T14:18:39.732Z,67
2016-10-11T14:19:40.211Z,65
2016-10-11T14:20:40.859Z,60
2016-10-11T14:21:41.361Z,50
2016-10-11T14:22:41.859Z,52
2016-10-11T14:23:42.208Z,45
2016-10-11T14:24:42.719Z,39